sensor_id;sensor_type;location;lat;lon;timestamp;temperature;humidity
75821;DHT22;64454;51.984;9.838;2023-03-01T00:02:05;1.30;1.00
75821;DHT22;64454;51.984;9.838;2023-03-01T00:04:32;1.40;1.00
75821;DHT22;64454;51.984;9.838;2023-03-01T00:06:59;1.40;1.00
75821;DHT22;64454;51.984;9.838;2023-03-01T00:09:25;1.30;1.00
75821;DHT22;64454;51.984;9.838;2023-03-01T00:11:54;1.30;1.00
75821;DHT22;64454;51.984;9.838;2023-03-01T00:14:21;1.20;1.00
75821;DHT22;64454;51.984;9.838;2023-03-01T00:16:49;1.20;1.00
75821;DHT22;64454;51.984;9.838;2023-03-01T00:19:18;1.10;1.00
75821;DHT22;64454;51.984;9.838;2023-03-01T00:21:47;1.10;1.00
75821;DHT22;64454;51.984;9.838;2023-03-01T00:24:15;1.20;1.00
75821;DHT22;64454;51.984;9.838;2023-03-01T00:26:42;1.20;1.00
75821;DHT22;64454;51.984;9.838;2023-03-01T00:29:10;1.10;1.00
75821;DHT22;64454;51.984;9.838;2023-03-01T00:31:37;1.10;1.00
75821;DHT22;64454;51.984;9.838;2023-03-01T00:34:05;1.10;1.00
75821;DHT22;64454;51.984;9.838;2023-03-01T00:36:35;1.10;1.00
75821;DHT22;64454;51.984;9.838;2023-03-01T00:39:05;1.20;1.00
75821;DHT22;64454;51.984;9.838;2023-03-01T00:41:36;1.10;1.00
75821;DHT22;64454;51.984;9.838;2023-03-01T00:44:04;1.10;1.00
75821;DHT22;64454;51.984;9.838;2023-03-01T00:46:32;1.10;1.00
75821;DHT22;64454;51.984;9.838;2023-03-01T00:48:59;1.00;1.00
75821;DHT22;64454;51.984;9.838;2023-03-01T00:51:28;1.00;1.00
75821;DHT22;64454;51.984;9.838;2023-03-01T00:53:57;0.90;1.00
75821;DHT22;64454;51.984;9.838;2023-03-01T00:56:25;0.90;1.00
75821;DHT22;64454;51.984;9.838;2023-03-01T00:58:52;0.90;1.00
75821;DHT22;64454;51.984;9.838;2023-03-01T01:01:22;0.90;1.00
75821;DHT22;64454;51.984;9.838;2023-03-01T01:03:55;0.80;1.00
75821;DHT22;64454;51.984;9.838;2023-03-01T01:06:25;0.60;1.00
75821;DHT22;64454;51.984;9.838;2023-03-01T01:08:54;0.50;1.00
75821;DHT22;64454;51.984;9.838;2023-03-01T01:11:22;0.30;1.00
75821;DHT22;64454;51.984;9.838;2023-03-01T01:13:51;0.20;1.00
75821;DHT22;64454;51.984;9.838;2023-03-01T01:16:19;0.10;1.00
75821;DHT22;64454;51.984;9.838;2023-03-01T01:18:47;0.00;1.00
75821;DHT22;64454;51.984;9.838;2023-03-01T01:21:18;0.00;1.00
75821;DHT22;64454;51.984;9.838;2023-03-01T01:23:47;0.10;1.00
75821;DHT22;64454;51.984;9.838;2023-03-01T01:26:16;0.20;1.00
75821;DHT22;64454;51.984;9.838;2023-03-01T01:28:45;0.20;1.00
75821;DHT22;64454;51.984;9.838;2023-03-01T01:31:13;0.20;1.00
75821;DHT22;64454;51.984;9.838;2023-03-01T01:33:40;0.20;1.00
75821;DHT22;64454;51.984;9.838;2023-03-01T01:36:08;0.20;1.00
75821;DHT22;64454;51.984;9.838;2023-03-01T01:38:38;0.30;1.00
75821;DHT22;64454;51.984;9.838;2023-03-01T01:41:08;0.30;1.00
75821;DHT22;64454;51.984;9.838;2023-03-01T01:43:39;0.40;1.00
75821;DHT22;64454;51.984;9.838;2023-03-01T01:46:16;0.40;1.00
75821;DHT22;64454;51.984;9.838;2023-03-01T01:48:54;0.40;1.00
75821;DHT22;64454;51.984;9.838;2023-03-01T01:51:27;0.30;1.00
75821;DHT22;64454;51.984;9.838;2023-03-01T01:54:08;0.40;1.00
75821;DHT22;64454;51.984;9.838;2023-03-01T01:56:40;0.40;1.00
75821;DHT22;64454;51.984;9.838;2023-03-01T01:59:12;0.40;1.00
75821;DHT22;64454;51.984;9.838;2023-03-01T02:01:40;0.40;1.00
75821;DHT22;64454;51.984;9.838;2023-03-01T02:04:07;0.40;1.00
75821;DHT22;64454;51.984;9.838;2023-03-01T02:06:38;0.50;1.00
75821;DHT22;64454;51.984;9.838;2023-03-01T02:09:12;0.40;1.00
75821;DHT22;64454;51.984;9.838;2023-03-01T02:11:43;0.40;1.00
75821;DHT22;64454;51.984;9.838;2023-03-01T02:14:11;0.40;1.00
75821;DHT22;64454;51.984;9.838;2023-03-01T02:16:38;0.40;1.00
75821;DHT22;64454;51.984;9.838;2023-03-01T02:19:05;0.40;1.00
75821;DHT22;64454;51.984;9.838;2023-03-01T02:21:40;0.40;1.00
75821;DHT22;64454;51.984;9.838;2023-03-01T02:24:21;0.40;1.00
75821;DHT22;64454;51.984;9.838;2023-03-01T02:26:56;0.40;1.00
75821;DHT22;64454;51.984;9.838;2023-03-01T02:29:27;0.40;1.00
75821;DHT22;64454;51.984;9.838;2023-03-01T02:31:57;0.30;1.00
75821;DHT22;64454;51.984;9.838;2023-03-01T02:34:26;0.30;1.00
75821;DHT22;64454;51.984;9.838;2023-03-01T02:36:58;0.30;1.00
75821;DHT22;64454;51.984;9.838;2023-03-01T02:39:31;0.30;1.00
75821;DHT22;64454;51.984;9.838;2023-03-01T02:42:02;0.30;1.00
75821;DHT22;64454;51.984;9.838;2023-03-01T02:44:32;0.30;1.00
75821;DHT22;64454;51.984;9.838;2023-03-01T02:47:01;0.20;1.00
75821;DHT22;64454;51.984;9.838;2023-03-01T02:49:31;0.20;1.00
75821;DHT22;64454;51.984;9.838;2023-03-01T02:52:36;0.10;1.00
75821;DHT22;64454;51.984;9.838;2023-03-01T02:55:13;0.00;1.00
75821;DHT22;64454;51.984;9.838;2023-03-01T02:57:43;-0.10;1.00
75821;DHT22;64454;51.984;9.838;2023-03-01T03:00:17;-0.10;1.00
75821;DHT22;64454;51.984;9.838;2023-03-01T03:02:45;-0.20;1.00
75821;DHT22;64454;51.984;9.838;2023-03-01T03:05:15;-0.20;1.00
75821;DHT22;64454;51.984;9.838;2023-03-01T03:07:45;-0.20;1.00
75821;DHT22;64454;51.984;9.838;2023-03-01T03:10:16;-0.20;1.00
75821;DHT22;64454;51.984;9.838;2023-03-01T03:12:49;-0.20;1.00
75821;DHT22;64454;51.984;9.838;2023-03-01T03:15:19;-0.20;1.00
75821;DHT22;64454;51.984;9.838;2023-03-01T03:17:47;-0.20;1.00
75821;DHT22;64454;51.984;9.838;2023-03-01T03:20:16;-0.30;1.00
75821;DHT22;64454;51.984;9.838;2023-03-01T03:22:45;-0.60;1.00
75821;DHT22;64454;51.984;9.838;2023-03-01T03:25:13;-0.60;1.00
75821;DHT22;64454;51.984;9.838;2023-03-01T03:27:41;-0.70;1.00
75821;DHT22;64454;51.984;9.838;2023-03-01T03:30:12;-0.80;1.00
75821;DHT22;64454;51.984;9.838;2023-03-01T03:32:44;-0.80;1.00
75821;DHT22;64454;51.984;9.838;2023-03-01T03:35:18;-0.80;1.00
75821;DHT22;64454;51.984;9.838;2023-03-01T03:37:46;-0.80;1.00
75821;DHT22;64454;51.984;9.838;2023-03-01T03:40:31;-0.70;1.00
75821;DHT22;64454;51.984;9.838;2023-03-01T03:42:59;-0.70;1.00
75821;DHT22;64454;51.984;9.838;2023-03-01T03:45:26;-0.70;1.00
75821;DHT22;64454;51.984;9.838;2023-03-01T03:47:54;-0.60;1.00
75821;DHT22;64454;51.984;9.838;2023-03-01T03:50:21;-0.50;1.00
75821;DHT22;64454;51.984;9.838;2023-03-01T03:52:47;-0.50;1.00
75821;DHT22;64454;51.984;9.838;2023-03-01T03:55:15;-0.50;1.00
75821;DHT22;64454;51.984;9.838;2023-03-01T03:57:45;-0.40;1.00
75821;DHT22;64454;51.984;9.838;2023-03-01T04:00:18;-0.40;1.00
75821;DHT22;64454;51.984;9.838;2023-03-01T04:02:47;-0.30;1.00
75821;DHT22;64454;51.984;9.838;2023-03-01T04:05:17;-0.30;1.00
75821;DHT22;64454;51.984;9.838;2023-03-01T04:07:45;-0.40;1.00
75821;DHT22;64454;51.984;9.838;2023-03-01T04:10:15;-0.40;1.00
75821;DHT22;64454;51.984;9.838;2023-03-01T04:12:42;-0.50;1.00
75821;DHT22;64454;51.984;9.838;2023-03-01T04:15:11;-0.50;1.00
75821;DHT22;64454;51.984;9.838;2023-03-01T04:17:42;-0.50;1.00
75821;DHT22;64454;51.984;9.838;2023-03-01T04:20:13;-0.50;1.00
75821;DHT22;64454;51.984;9.838;2023-03-01T04:22:44;-0.50;1.00
75821;DHT22;64454;51.984;9.838;2023-03-01T04:25:12;-0.50;1.00
75821;DHT22;64454;51.984;9.838;2023-03-01T04:27:39;-0.50;1.00
75821;DHT22;64454;51.984;9.838;2023-03-01T04:30:08;-0.50;1.00
75821;DHT22;64454;51.984;9.838;2023-03-01T04:32:36;-0.50;1.00
75821;DHT22;64454;51.984;9.838;2023-03-01T04:35:04;-0.50;1.00
75821;DHT22;64454;51.984;9.838;2023-03-01T04:37:31;-0.60;1.00
75821;DHT22;64454;51.984;9.838;2023-03-01T04:39:59;-0.60;1.00
75821;DHT22;64454;51.984;9.838;2023-03-01T04:42:26;-0.60;1.00
75821;DHT22;64454;51.984;9.838;2023-03-01T04:44:53;-0.60;1.00
75821;DHT22;64454;51.984;9.838;2023-03-01T04:47:19;-0.60;1.00
75821;DHT22;64454;51.984;9.838;2023-03-01T04:49:46;-0.50;1.00
75821;DHT22;64454;51.984;9.838;2023-03-01T04:52:13;-0.60;1.00
75821;DHT22;64454;51.984;9.838;2023-03-01T04:54:40;-0.50;1.00
75821;DHT22;64454;51.984;9.838;2023-03-01T04:57:08;-0.50;1.00
75821;DHT22;64454;51.984;9.838;2023-03-01T04:59:35;-0.60;1.00
75821;DHT22;64454;51.984;9.838;2023-03-01T05:02:02;-0.80;1.00
75821;DHT22;64454;51.984;9.838;2023-03-01T05:04:28;-0.90;1.00
75821;DHT22;64454;51.984;9.838;2023-03-01T05:06:57;-0.90;1.00
75821;DHT22;64454;51.984;9.838;2023-03-01T05:09:24;-1.00;1.00
75821;DHT22;64454;51.984;9.838;2023-03-01T05:11:50;-1.10;1.00
75821;DHT22;64454;51.984;9.838;2023-03-01T05:14:19;-1.10;1.00
75821;DHT22;64454;51.984;9.838;2023-03-01T05:16:48;-1.10;1.00
75821;DHT22;64454;51.984;9.838;2023-03-01T05:19:15;-1.10;1.00
75821;DHT22;64454;51.984;9.838;2023-03-01T05:21:48;-1.00;1.00
75821;DHT22;64454;51.984;9.838;2023-03-01T05:24:32;-1.00;1.00
75821;DHT22;64454;51.984;9.838;2023-03-01T05:27:01;-1.00;1.00
75821;DHT22;64454;51.984;9.838;2023-03-01T05:29:31;-1.10;1.00
75821;DHT22;64454;51.984;9.838;2023-03-01T05:32:01;-1.10;1.00
75821;DHT22;64454;51.984;9.838;2023-03-01T05:34:30;-1.10;1.00
75821;DHT22;64454;51.984;9.838;2023-03-01T05:36:58;-1.10;1.00
75821;DHT22;64454;51.984;9.838;2023-03-01T05:39:28;-1.10;1.00
75821;DHT22;64454;51.984;9.838;2023-03-01T05:41:58;-1.10;1.00
75821;DHT22;64454;51.984;9.838;2023-03-01T05:44:28;-1.10;1.00
75821;DHT22;64454;51.984;9.838;2023-03-01T05:46:56;-1.10;1.00
75821;DHT22;64454;51.984;9.838;2023-03-01T05:49:24;-1.00;1.00
75821;DHT22;64454;51.984;9.838;2023-03-01T05:51:52;-1.00;1.00
75821;DHT22;64454;51.984;9.838;2023-03-01T05:54:21;-1.00;1.00
75821;DHT22;64454;51.984;9.838;2023-03-01T05:56:48;-1.00;1.00
75821;DHT22;64454;51.984;9.838;2023-03-01T05:59:15;-1.00;1.00
75821;DHT22;64454;51.984;9.838;2023-03-01T06:01:44;-0.90;1.00
75821;DHT22;64454;51.984;9.838;2023-03-01T06:04:10;-0.90;1.00
75821;DHT22;64454;51.984;9.838;2023-03-01T06:06:38;-0.90;1.00
75821;DHT22;64454;51.984;9.838;2023-03-01T06:09:05;-0.90;1.00
75821;DHT22;64454;51.984;9.838;2023-03-01T06:11:34;-0.90;1.00
75821;DHT22;64454;51.984;9.838;2023-03-01T06:14:01;-0.90;1.00
75821;DHT22;64454;51.984;9.838;2023-03-01T06:16:28;-0.90;1.00
75821;DHT22;64454;51.984;9.838;2023-03-01T06:18:58;-0.90;1.00
75821;DHT22;64454;51.984;9.838;2023-03-01T06:21:25;-0.90;1.00
75821;DHT22;64454;51.984;9.838;2023-03-01T06:23:52;-0.90;1.00
75821;DHT22;64454;51.984;9.838;2023-03-01T06:26:19;-0.90;1.00
75821;DHT22;64454;51.984;9.838;2023-03-01T06:28:46;-0.80;1.00
75821;DHT22;64454;51.984;9.838;2023-03-01T06:31:13;-0.80;1.00
75821;DHT22;64454;51.984;9.838;2023-03-01T06:33:40;-0.80;1.00
75821;DHT22;64454;51.984;9.838;2023-03-01T06:36:08;-0.80;1.00
75821;DHT22;64454;51.984;9.838;2023-03-01T06:38:35;-0.70;1.00
75821;DHT22;64454;51.984;9.838;2023-03-01T06:41:03;-0.80;1.00
75821;DHT22;64454;51.984;9.838;2023-03-01T06:43:29;-0.80;1.00
75821;DHT22;64454;51.984;9.838;2023-03-01T06:45:56;-0.70;1.00
75821;DHT22;64454;51.984;9.838;2023-03-01T06:48:23;-0.70;1.00
75821;DHT22;64454;51.984;9.838;2023-03-01T06:50:50;-0.70;1.00
75821;DHT22;64454;51.984;9.838;2023-03-01T06:53:18;-0.70;1.00
75821;DHT22;64454;51.984;9.838;2023-03-01T06:55:45;-0.60;1.00
75821;DHT22;64454;51.984;9.838;2023-03-01T06:58:11;-0.60;1.00
75821;DHT22;64454;51.984;9.838;2023-03-01T07:00:38;-0.50;1.00
75821;DHT22;64454;51.984;9.838;2023-03-01T07:03:06;-0.40;1.00
75821;DHT22;64454;51.984;9.838;2023-03-01T07:05:33;-0.30;1.00
75821;DHT22;64454;51.984;9.838;2023-03-01T07:08:00;-0.20;1.00
75821;DHT22;64454;51.984;9.838;2023-03-01T07:10:28;0.00;1.00
75821;DHT22;64454;51.984;9.838;2023-03-01T07:12:56;0.00;1.00
75821;DHT22;64454;51.984;9.838;2023-03-01T07:15:23;0.10;1.00
75821;DHT22;64454;51.984;9.838;2023-03-01T07:17:51;0.10;1.00
75821;DHT22;64454;51.984;9.838;2023-03-01T07:20:19;0.20;1.00
75821;DHT22;64454;51.984;9.838;2023-03-01T07:22:49;0.30;1.00
75821;DHT22;64454;51.984;9.838;2023-03-01T07:25:16;0.30;1.00
75821;DHT22;64454;51.984;9.838;2023-03-01T07:27:49;0.50;1.00
75821;DHT22;64454;51.984;9.838;2023-03-01T07:30:17;0.60;1.00
75821;DHT22;64454;51.984;9.838;2023-03-01T07:32:44;0.80;1.00
75821;DHT22;64454;51.984;9.838;2023-03-01T07:35:11;0.90;1.00
75821;DHT22;64454;51.984;9.838;2023-03-01T07:37:40;1.00;1.00
75821;DHT22;64454;51.984;9.838;2023-03-01T07:40:08;1.20;1.00
75821;DHT22;64454;51.984;9.838;2023-03-01T07:42:35;1.30;1.00
75821;DHT22;64454;51.984;9.838;2023-03-01T07:45:05;1.50;1.00
75821;DHT22;64454;51.984;9.838;2023-03-01T07:47:33;1.60;1.00
75821;DHT22;64454;51.984;9.838;2023-03-01T07:50:00;1.70;1.00
75821;DHT22;64454;51.984;9.838;2023-03-01T07:52:28;1.90;1.00
75821;DHT22;64454;51.984;9.838;2023-03-01T07:54:55;2.00;1.00
75821;DHT22;64454;51.984;9.838;2023-03-01T07:57:22;2.10;1.00
75821;DHT22;64454;51.984;9.838;2023-03-01T07:59:48;2.30;1.00
75821;DHT22;64454;51.984;9.838;2023-03-01T08:02:17;2.50;1.00
75821;DHT22;64454;51.984;9.838;2023-03-01T08:04:44;2.70;1.00
75821;DHT22;64454;51.984;9.838;2023-03-01T08:07:10;3.10;1.00
75821;DHT22;64454;51.984;9.838;2023-03-01T08:09:37;3.60;1.00
75821;DHT22;64454;51.984;9.838;2023-03-01T08:12:05;4.20;1.00
75821;DHT22;64454;51.984;9.838;2023-03-01T08:14:32;4.90;1.00
75821;DHT22;64454;51.984;9.838;2023-03-01T08:16:59;5.60;1.00
75821;DHT22;64454;51.984;9.838;2023-03-01T08:19:29;6.40;1.00
75821;DHT22;64454;51.984;9.838;2023-03-01T08:21:57;7.40;1.00
75821;DHT22;64454;51.984;9.838;2023-03-01T08:24:25;8.60;1.00
75821;DHT22;64454;51.984;9.838;2023-03-01T08:26:52;9.70;1.00
75821;DHT22;64454;51.984;9.838;2023-03-01T08:29:19;10.90;1.00
75821;DHT22;64454;51.984;9.838;2023-03-01T08:31:47;11.90;1.00
75821;DHT22;64454;51.984;9.838;2023-03-01T08:34:17;13.00;1.00
75821;DHT22;64454;51.984;9.838;2023-03-01T08:36:47;14.00;1.00
75821;DHT22;64454;51.984;9.838;2023-03-01T08:39:17;14.90;1.00
75821;DHT22;64454;51.984;9.838;2023-03-01T08:41:47;15.40;1.00
75821;DHT22;64454;51.984;9.838;2023-03-01T08:44:15;16.10;1.00
75821;DHT22;64454;51.984;9.838;2023-03-01T08:46:43;16.40;1.00
75821;DHT22;64454;51.984;9.838;2023-03-01T08:49:13;17.00;1.00
75821;DHT22;64454;51.984;9.838;2023-03-01T08:51:43;17.60;1.00
75821;DHT22;64454;51.984;9.838;2023-03-01T08:54:14;18.50;1.00
75821;DHT22;64454;51.984;9.838;2023-03-01T08:56:43;19.20;1.00
75821;DHT22;64454;51.984;9.838;2023-03-01T08:59:11;19.80;1.00
75821;DHT22;64454;51.984;9.838;2023-03-01T09:01:40;20.70;1.00
75821;DHT22;64454;51.984;9.838;2023-03-01T09:04:09;21.10;1.00
75821;DHT22;64454;51.984;9.838;2023-03-01T09:06:36;22.40;1.00
75821;DHT22;64454;51.984;9.838;2023-03-01T09:09:05;23.40;1.00
75821;DHT22;64454;51.984;9.838;2023-03-01T09:11:34;23.50;1.00
75821;DHT22;64454;51.984;9.838;2023-03-01T09:14:05;23.60;1.00
75821;DHT22;64454;51.984;9.838;2023-03-01T09:16:32;24.20;1.00
75821;DHT22;64454;51.984;9.838;2023-03-01T09:19:02;25.40;1.00
75821;DHT22;64454;51.984;9.838;2023-03-01T09:21:30;25.80;1.00
75821;DHT22;64454;51.984;9.838;2023-03-01T09:23:57;26.50;1.00
75821;DHT22;64454;51.984;9.838;2023-03-01T09:26:25;27.30;1.00
75821;DHT22;64454;51.984;9.838;2023-03-01T09:28:54;27.10;1.00
75821;DHT22;64454;51.984;9.838;2023-03-01T09:31:23;27.40;1.00
75821;DHT22;64454;51.984;9.838;2023-03-01T09:33:52;27.30;1.00
75821;DHT22;64454;51.984;9.838;2023-03-01T09:36:21;28.50;1.00
75821;DHT22;64454;51.984;9.838;2023-03-01T09:38:50;28.50;1.00
75821;DHT22;64454;51.984;9.838;2023-03-01T09:41:32;29.20;1.00
75821;DHT22;64454;51.984;9.838;2023-03-01T09:44:24;29.90;1.00
75821;DHT22;64454;51.984;9.838;2023-03-01T09:46:57;30.10;1.00
75821;DHT22;64454;51.984;9.838;2023-03-01T09:49:27;30.50;1.00
75821;DHT22;64454;51.984;9.838;2023-03-01T09:51:58;31.50;1.00
75821;DHT22;64454;51.984;9.838;2023-03-01T09:54:30;32.40;1.00
75821;DHT22;64454;51.984;9.838;2023-03-01T09:57:19;33.00;1.00
75821;DHT22;64454;51.984;9.838;2023-03-01T10:00:03;33.90;1.00
75821;DHT22;64454;51.984;9.838;2023-03-01T10:02:43;34.70;1.00
75821;DHT22;64454;51.984;9.838;2023-03-01T10:05:31;34.80;1.00
75821;DHT22;64454;51.984;9.838;2023-03-01T10:08:18;34.30;1.00
75821;DHT22;64454;51.984;9.838;2023-03-01T10:10:53;33.30;1.00
75821;DHT22;64454;51.984;9.838;2023-03-01T10:13:23;33.30;1.00
75821;DHT22;64454;51.984;9.838;2023-03-01T10:15:58;33.20;1.00
75821;DHT22;64454;51.984;9.838;2023-03-01T10:18:30;33.60;1.00
75821;DHT22;64454;51.984;9.838;2023-03-01T10:21:05;34.00;1.00
75821;DHT22;64454;51.984;9.838;2023-03-01T10:23:39;33.90;1.00
75821;DHT22;64454;51.984;9.838;2023-03-01T10:26:20;34.20;1.00
75821;DHT22;64454;51.984;9.838;2023-03-01T10:29:01;33.20;1.00
75821;DHT22;64454;51.984;9.838;2023-03-01T10:31:38;33.00;1.00
75821;DHT22;64454;51.984;9.838;2023-03-01T10:34:10;32.40;1.00
75821;DHT22;64454;51.984;9.838;2023-03-01T10:36:41;32.70;1.00
75821;DHT22;64454;51.984;9.838;2023-03-01T10:39:15;33.80;1.00
75821;DHT22;64454;51.984;9.838;2023-03-01T10:41:55;33.90;1.00
75821;DHT22;64454;51.984;9.838;2023-03-01T10:44:42;35.20;1.00
75821;DHT22;64454;51.984;9.838;2023-03-01T10:47:17;36.20;1.00
75821;DHT22;64454;51.984;9.838;2023-03-01T10:49:57;36.20;1.00
75821;DHT22;64454;51.984;9.838;2023-03-01T10:52:29;36.60;1.00
75821;DHT22;64454;51.984;9.838;2023-03-01T10:54:59;35.80;1.00
75821;DHT22;64454;51.984;9.838;2023-03-01T10:57:33;33.60;1.00
75821;DHT22;64454;51.984;9.838;2023-03-01T11:00:21;32.30;1.00
75821;DHT22;64454;51.984;9.838;2023-03-01T11:03:01;32.20;1.00
75821;DHT22;64454;51.984;9.838;2023-03-01T11:05:30;30.80;1.00
75821;DHT22;64454;51.984;9.838;2023-03-01T11:07:59;28.80;1.00
75821;DHT22;64454;51.984;9.838;2023-03-01T11:10:29;26.10;1.00
75821;DHT22;64454;51.984;9.838;2023-03-01T11:13:13;24.10;1.00
75821;DHT22;64454;51.984;9.838;2023-03-01T11:15:44;22.80;1.00
75821;DHT22;64454;51.984;9.838;2023-03-01T11:18:26;22.00;1.00
75821;DHT22;64454;51.984;9.838;2023-03-01T11:20:55;21.00;1.00
75821;DHT22;64454;51.984;9.838;2023-03-01T11:23:25;20.00;1.00
75821;DHT22;64454;51.984;9.838;2023-03-01T11:25:56;19.00;1.00
75821;DHT22;64454;51.984;9.838;2023-03-01T11:28:28;18.40;1.00
75821;DHT22;64454;51.984;9.838;2023-03-01T11:31:00;17.70;1.00
75821;DHT22;64454;51.984;9.838;2023-03-01T11:33:34;17.30;1.00
75821;DHT22;64454;51.984;9.838;2023-03-01T11:36:13;16.80;1.00
75821;DHT22;64454;51.984;9.838;2023-03-01T11:38:44;16.10;1.00
75821;DHT22;64454;51.984;9.838;2023-03-01T11:41:16;15.70;1.00
75821;DHT22;64454;51.984;9.838;2023-03-01T11:43:50;15.00;1.00
75821;DHT22;64454;51.984;9.838;2023-03-01T11:46:47;14.70;1.00
75821;DHT22;64454;51.984;9.838;2023-03-01T11:52:46;14.30;1.00
75821;DHT22;64454;51.984;9.838;2023-03-01T11:55:29;14.20;1.00
75821;DHT22;64454;51.984;9.838;2023-03-01T11:58:37;14.00;1.00
75821;DHT22;64454;51.984;9.838;2023-03-01T12:01:25;13.90;1.00
75821;DHT22;64454;51.984;9.838;2023-03-01T12:04:22;13.80;1.00
75821;DHT22;64454;51.984;9.838;2023-03-01T12:07:02;13.70;1.00
75821;DHT22;64454;51.984;9.838;2023-03-01T12:09:43;13.90;1.00
75821;DHT22;64454;51.984;9.838;2023-03-01T12:12:30;14.00;1.00
75821;DHT22;64454;51.984;9.838;2023-03-01T12:15:43;14.20;1.00
75821;DHT22;64454;51.984;9.838;2023-03-01T12:18:50;14.50;1.00
75821;DHT22;64454;51.984;9.838;2023-03-01T12:21:39;14.80;1.00
75821;DHT22;64454;51.984;9.838;2023-03-01T12:24:37;15.20;1.00
75821;DHT22;64454;51.984;9.838;2023-03-01T12:27:33;15.60;1.00
75821;DHT22;64454;51.984;9.838;2023-03-01T12:30:24;16.00;1.00
75821;DHT22;64454;51.984;9.838;2023-03-01T12:33:11;16.30;1.00
75821;DHT22;64454;51.984;9.838;2023-03-01T12:36:14;16.60;1.00
75821;DHT22;64454;51.984;9.838;2023-03-01T12:38:59;16.80;1.00
75821;DHT22;64454;51.984;9.838;2023-03-01T12:41:46;17.40;1.00
75821;DHT22;64454;51.984;9.838;2023-03-01T12:47:36;18.60;1.00
75821;DHT22;64454;51.984;9.838;2023-03-01T12:50:19;19.40;1.00
75821;DHT22;64454;51.984;9.838;2023-03-01T12:52:52;21.30;1.00
75821;DHT22;64454;51.984;9.838;2023-03-01T12:55:29;23.40;1.00
75821;DHT22;64454;51.984;9.838;2023-03-01T12:58:07;25.20;1.00
75821;DHT22;64454;51.984;9.838;2023-03-01T13:00:59;26.60;1.00
75821;DHT22;64454;51.984;9.838;2023-03-01T13:03:38;28.60;1.00
75821;DHT22;64454;51.984;9.838;2023-03-01T13:06:29;30.10;1.00
75821;DHT22;64454;51.984;9.838;2023-03-01T13:09:08;29.80;1.00
75821;DHT22;64454;51.984;9.838;2023-03-01T13:11:43;31.00;1.00
75821;DHT22;64454;51.984;9.838;2023-03-01T13:14:36;31.40;1.00
75821;DHT22;64454;51.984;9.838;2023-03-01T13:17:07;31.70;1.00
75821;DHT22;64454;51.984;9.838;2023-03-01T13:19:57;31.70;1.00
75821;DHT22;64454;51.984;9.838;2023-03-01T13:22:27;32.00;1.00
75821;DHT22;64454;51.984;9.838;2023-03-01T13:25:13;32.50;1.00
75821;DHT22;64454;51.984;9.838;2023-03-01T13:27:44;32.60;1.00
75821;DHT22;64454;51.984;9.838;2023-03-01T13:30:40;32.70;1.00
75821;DHT22;64454;51.984;9.838;2023-03-01T13:33:41;32.90;1.00
75821;DHT22;64454;51.984;9.838;2023-03-01T13:36:10;33.10;1.00
75821;DHT22;64454;51.984;9.838;2023-03-01T13:39:02;31.80;1.00
75821;DHT22;64454;51.984;9.838;2023-03-01T13:41:49;31.60;1.00
75821;DHT22;64454;51.984;9.838;2023-03-01T13:44:24;31.20;1.00
75821;DHT22;64454;51.984;9.838;2023-03-01T13:46:55;31.90;1.00
75821;DHT22;64454;51.984;9.838;2023-03-01T13:49:27;31.30;1.00
75821;DHT22;64454;51.984;9.838;2023-03-01T13:52:02;31.90;1.00
75821;DHT22;64454;51.984;9.838;2023-03-01T13:54:33;32.20;1.00
75821;DHT22;64454;51.984;9.838;2023-03-01T13:57:01;32.10;1.00
75821;DHT22;64454;51.984;9.838;2023-03-01T13:59:28;31.60;1.00
75821;DHT22;64454;51.984;9.838;2023-03-01T14:01:57;32.30;1.00
75821;DHT22;64454;51.984;9.838;2023-03-01T14:04:26;33.00;1.00
75821;DHT22;64454;51.984;9.838;2023-03-01T14:07:12;33.20;1.00
75821;DHT22;64454;51.984;9.838;2023-03-01T14:09:47;31.50;1.00
75821;DHT22;64454;51.984;9.838;2023-03-01T14:12:26;30.60;1.00
75821;DHT22;64454;51.984;9.838;2023-03-01T14:15:09;30.00;1.00
75821;DHT22;64454;51.984;9.838;2023-03-01T14:17:51;30.00;1.00
75821;DHT22;64454;51.984;9.838;2023-03-01T14:20:26;29.90;1.00
75821;DHT22;64454;51.984;9.838;2023-03-01T14:22:56;30.30;1.00
75821;DHT22;64454;51.984;9.838;2023-03-01T14:25:28;30.20;1.00
75821;DHT22;64454;51.984;9.838;2023-03-01T14:28:00;29.50;1.00
75821;DHT22;64454;51.984;9.838;2023-03-01T14:30:33;28.30;1.00
75821;DHT22;64454;51.984;9.838;2023-03-01T14:33:15;26.00;1.00
75821;DHT22;64454;51.984;9.838;2023-03-01T14:35:53;23.80;1.00
75821;DHT22;64454;51.984;9.838;2023-03-01T14:38:23;21.20;1.00
75821;DHT22;64454;51.984;9.838;2023-03-01T14:41:00;19.20;1.00
75821;DHT22;64454;51.984;9.838;2023-03-01T14:43:31;17.90;1.00
75821;DHT22;64454;51.984;9.838;2023-03-01T14:45:59;16.80;1.00
75821;DHT22;64454;51.984;9.838;2023-03-01T14:48:27;15.50;1.00
75821;DHT22;64454;51.984;9.838;2023-03-01T14:50:56;14.80;1.00
75821;DHT22;64454;51.984;9.838;2023-03-01T14:53:24;14.30;1.00
75821;DHT22;64454;51.984;9.838;2023-03-01T14:55:54;14.00;1.00
75821;DHT22;64454;51.984;9.838;2023-03-01T14:58:25;13.60;1.00
75821;DHT22;64454;51.984;9.838;2023-03-01T15:00:54;13.10;1.00
75821;DHT22;64454;51.984;9.838;2023-03-01T15:03:26;12.90;1.00
75821;DHT22;64454;51.984;9.838;2023-03-01T15:05:58;12.80;1.00
75821;DHT22;64454;51.984;9.838;2023-03-01T15:08:26;12.50;1.00
75821;DHT22;64454;51.984;9.838;2023-03-01T15:11:00;12.40;1.00
75821;DHT22;64454;51.984;9.838;2023-03-01T15:13:33;12.40;1.00
75821;DHT22;64454;51.984;9.838;2023-03-01T15:16:04;12.40;1.00
75821;DHT22;64454;51.984;9.838;2023-03-01T15:18:34;12.90;1.00
75821;DHT22;64454;51.984;9.838;2023-03-01T15:21:08;14.30;1.00
75821;DHT22;64454;51.984;9.838;2023-03-01T15:23:37;16.10;1.00
75821;DHT22;64454;51.984;9.838;2023-03-01T15:26:06;17.80;1.00
75821;DHT22;64454;51.984;9.838;2023-03-01T15:28:51;18.90;1.00
75821;DHT22;64454;51.984;9.838;2023-03-01T15:31:25;19.90;1.00
75821;DHT22;64454;51.984;9.838;2023-03-01T15:34:07;20.50;1.00
75821;DHT22;64454;51.984;9.838;2023-03-01T15:36:40;21.10;1.00
75821;DHT22;64454;51.984;9.838;2023-03-01T15:39:36;22.20;1.00
75821;DHT22;64454;51.984;9.838;2023-03-01T15:42:07;23.10;1.00
75821;DHT22;64454;51.984;9.838;2023-03-01T15:44:39;23.40;1.00
75821;DHT22;64454;51.984;9.838;2023-03-01T15:47:24;23.00;1.00
75821;DHT22;64454;51.984;9.838;2023-03-01T15:49:54;22.10;1.00
75821;DHT22;64454;51.984;9.838;2023-03-01T15:52:25;22.30;1.00
75821;DHT22;64454;51.984;9.838;2023-03-01T15:54:59;22.40;1.00
75821;DHT22;64454;51.984;9.838;2023-03-01T15:57:27;22.20;1.00
75821;DHT22;64454;51.984;9.838;2023-03-01T15:59:56;22.20;1.00
75821;DHT22;64454;51.984;9.838;2023-03-01T16:02:23;21.60;1.00
75821;DHT22;64454;51.984;9.838;2023-03-01T16:04:51;20.30;1.00
75821;DHT22;64454;51.984;9.838;2023-03-01T16:07:19;18.90;1.00
75821;DHT22;64454;51.984;9.838;2023-03-01T16:09:45;17.50;1.00
75821;DHT22;64454;51.984;9.838;2023-03-01T16:12:14;16.30;1.00
75821;DHT22;64454;51.984;9.838;2023-03-01T16:14:42;15.50;1.00
75821;DHT22;64454;51.984;9.838;2023-03-01T16:17:11;14.50;1.00
75821;DHT22;64454;51.984;9.838;2023-03-01T16:19:38;13.90;1.00
75821;DHT22;64454;51.984;9.838;2023-03-01T16:22:06;13.40;1.00
75821;DHT22;64454;51.984;9.838;2023-03-01T16:24:35;12.90;1.00
75821;DHT22;64454;51.984;9.838;2023-03-01T16:27:02;12.40;1.00
75821;DHT22;64454;51.984;9.838;2023-03-01T16:29:29;11.90;1.00